sensor_id;sensor_type;location;lat;lon;timestamp;P1;durP1;ratioP1;P2;durP2;ratioP2
20122;SDS011;10222;50.848;4.336;2024-01-16T00:00:01;4.27;;;2.20;;
20122;SDS011;10222;50.848;4.336;2024-01-16T00:02:28;6.60;;;2.53;;
20122;SDS011;10222;50.848;4.336;2024-01-16T00:04:54;7.17;;;2.63;;
20122;SDS011;10222;50.848;4.336;2024-01-16T00:07:20;6.70;;;2.50;;
20122;SDS011;10222;50.848;4.336;2024-01-16T00:09:46;8.30;;;2.67;;
20122;SDS011;10222;50.848;4.336;2024-01-16T00:12:12;5.40;;;2.47;;
20122;SDS011;10222;50.848;4.336;2024-01-16T00:14:38;7.67;;;2.73;;
20122;SDS011;10222;50.848;4.336;2024-01-16T00:17:04;5.17;;;2.10;;
20122;SDS011;10222;50.848;4.336;2024-01-16T00:19:31;6.87;;;2.50;;
20122;SDS011;10222;50.848;4.336;2024-01-16T00:21:57;7.17;;;2.10;;
20122;SDS011;10222;50.848;4.336;2024-01-16T00:24:23;3.43;;;2.37;;
20122;SDS011;10222;50.848;4.336;2024-01-16T00:26:49;7.23;;;2.70;;
20122;SDS011;10222;50.848;4.336;2024-01-16T00:29:15;9.93;;;2.60;;
20122;SDS011;10222;50.848;4.336;2024-01-16T00:31:41;6.53;;;3.30;;
20122;SDS011;10222;50.848;4.336;2024-01-16T00:34:07;5.87;;;2.77;;
20122;SDS011;10222;50.848;4.336;2024-01-16T00:36:33;9.47;;;3.20;;
20122;SDS011;10222;50.848;4.336;2024-01-16T00:38:59;10.03;;;3.30;;
20122;SDS011;10222;50.848;4.336;2024-01-16T00:41:25;7.67;;;3.07;;
20122;SDS011;10222;50.848;4.336;2024-01-16T00:43:52;14.43;;;3.50;;
20122;SDS011;10222;50.848;4.336;2024-01-16T00:46:18;6.17;;;3.20;;
20122;SDS011;10222;50.848;4.336;2024-01-16T00:48:44;6.63;;;3.07;;
20122;SDS011;10222;50.848;4.336;2024-01-16T00:51:10;11.63;;;3.60;;
20122;SDS011;10222;50.848;4.336;2024-01-16T00:53:42;6.47;;;2.97;;
20122;SDS011;10222;50.848;4.336;2024-01-16T00:56:08;4.87;;;2.60;;
20122;SDS011;10222;50.848;4.336;2024-01-16T00:58:34;10.53;;;3.23;;
20122;SDS011;10222;50.848;4.336;2024-01-16T01:01:00;6.03;;;2.90;;
20122;SDS011;10222;50.848;4.336;2024-01-16T01:03:26;10.00;;;2.67;;
20122;SDS011;10222;50.848;4.336;2024-01-16T01:05:52;9.17;;;3.40;;
20122;SDS011;10222;50.848;4.336;2024-01-16T01:08:18;7.07;;;2.80;;
20122;SDS011;10222;50.848;4.336;2024-01-16T01:10:44;7.57;;;2.87;;
20122;SDS011;10222;50.848;4.336;2024-01-16T01:13:10;8.13;;;3.10;;
20122;SDS011;10222;50.848;4.336;2024-01-16T01:15:36;5.17;;;2.90;;
20122;SDS011;10222;50.848;4.336;2024-01-16T01:18:02;7.37;;;3.17;;
20122;SDS011;10222;50.848;4.336;2024-01-16T01:20:29;5.47;;;2.83;;
20122;SDS011;10222;50.848;4.336;2024-01-16T01:22:55;12.80;;;3.57;;
20122;SDS011;10222;50.848;4.336;2024-01-16T01:25:21;7.17;;;3.57;;
20122;SDS011;10222;50.848;4.336;2024-01-16T01:27:48;7.30;;;3.27;;
20122;SDS011;10222;50.848;4.336;2024-01-16T01:30:14;11.27;;;4.43;;
20122;SDS011;10222;50.848;4.336;2024-01-16T01:32:40;6.80;;;3.30;;
20122;SDS011;10222;50.848;4.336;2024-01-16T01:35:06;10.07;;;3.47;;
20122;SDS011;10222;50.848;4.336;2024-01-16T01:37:32;8.23;;;3.57;;
20122;SDS011;10222;50.848;4.336;2024-01-16T01:39:58;6.03;;;3.47;;
20122;SDS011;10222;50.848;4.336;2024-01-16T01:42:24;6.30;;;3.33;;
20122;SDS011;10222;50.848;4.336;2024-01-16T01:44:50;10.60;;;3.33;;
20122;SDS011;10222;50.848;4.336;2024-01-16T01:47:16;9.57;;;4.30;;
20122;SDS011;10222;50.848;4.336;2024-01-16T01:49:42;8.27;;;3.40;;
20122;SDS011;10222;50.848;4.336;2024-01-16T01:52:09;9.37;;;3.50;;
20122;SDS011;10222;50.848;4.336;2024-01-16T01:54:36;8.10;;;3.57;;
20122;SDS011;10222;50.848;4.336;2024-01-16T01:57:03;8.73;;;3.07;;
20122;SDS011;10222;50.848;4.336;2024-01-16T01:59:30;7.83;;;3.47;;
20122;SDS011;10222;50.848;4.336;2024-01-16T02:01:56;6.77;;;3.50;;
20122;SDS011;10222;50.848;4.336;2024-01-16T02:04:22;8.07;;;3.43;;
20122;SDS011;10222;50.848;4.336;2024-01-16T02:06:50;12.60;;;3.77;;
20122;SDS011;10222;50.848;4.336;2024-01-16T02:09:16;7.33;;;2.63;;
20122;SDS011;10222;50.848;4.336;2024-01-16T02:11:42;9.87;;;3.40;;
20122;SDS011;10222;50.848;4.336;2024-01-16T02:14:08;6.90;;;3.33;;
20122;SDS011;10222;50.848;4.336;2024-01-16T02:16:38;8.27;;;3.07;;
20122;SDS011;10222;50.848;4.336;2024-01-16T02:19:05;9.03;;;3.13;;
20122;SDS011;10222;50.848;4.336;2024-01-16T02:21:33;6.27;;;3.13;;
20122;SDS011;10222;50.848;4.336;2024-01-16T02:24:00;5.63;;;2.97;;
20122;SDS011;10222;50.848;4.336;2024-01-16T02:26:26;8.27;;;2.77;;
20122;SDS011;10222;50.848;4.336;2024-01-16T02:28:53;7.57;;;2.93;;
20122;SDS011;10222;50.848;4.336;2024-01-16T02:31:20;9.17;;;2.80;;
20122;SDS011;10222;50.848;4.336;2024-01-16T02:33:46;7.63;;;3.30;;
20122;SDS011;10222;50.848;4.336;2024-01-16T02:36:12;9.70;;;3.50;;
20122;SDS011;10222;50.848;4.336;2024-01-16T02:38:38;9.17;;;3.57;;
20122;SDS011;10222;50.848;4.336;2024-01-16T02:41:04;5.27;;;3.23;;
20122;SDS011;10222;50.848;4.336;2024-01-16T02:43:31;10.23;;;3.63;;
20122;SDS011;10222;50.848;4.336;2024-01-16T02:45:57;10.30;;;3.40;;
20122;SDS011;10222;50.848;4.336;2024-01-16T02:48:23;8.40;;;3.33;;
20122;SDS011;10222;50.848;4.336;2024-01-16T02:50:49;5.57;;;3.07;;
20122;SDS011;10222;50.848;4.336;2024-01-16T02:53:15;5.57;;;3.10;;
20122;SDS011;10222;50.848;4.336;2024-01-16T02:55:41;9.67;;;3.10;;
20122;SDS011;10222;50.848;4.336;2024-01-16T02:58:07;7.53;;;3.20;;
20122;SDS011;10222;50.848;4.336;2024-01-16T03:00:33;6.97;;;3.07;;
20122;SDS011;10222;50.848;4.336;2024-01-16T03:02:59;7.83;;;3.50;;
20122;SDS011;10222;50.848;4.336;2024-01-16T03:05:25;10.10;;;3.47;;
20122;SDS011;10222;50.848;4.336;2024-01-16T03:07:51;5.20;;;2.70;;
20122;SDS011;10222;50.848;4.336;2024-01-16T03:10:17;10.67;;;3.10;;
20122;SDS011;10222;50.848;4.336;2024-01-16T03:12:43;6.80;;;2.77;;
20122;SDS011;10222;50.848;4.336;2024-01-16T03:15:10;7.93;;;3.60;;
20122;SDS011;10222;50.848;4.336;2024-01-16T03:17:36;10.73;;;3.23;;
20122;SDS011;10222;50.848;4.336;2024-01-16T03:20:02;8.57;;;3.13;;
20122;SDS011;10222;50.848;4.336;2024-01-16T03:22:29;5.43;;;3.00;;
20122;SDS011;10222;50.848;4.336;2024-01-16T03:24:55;9.77;;;3.30;;
20122;SDS011;10222;50.848;4.336;2024-01-16T03:27:21;9.60;;;3.43;;
20122;SDS011;10222;50.848;4.336;2024-01-16T03:29:47;6.63;;;3.33;;
20122;SDS011;10222;50.848;4.336;2024-01-16T03:32:13;5.27;;;2.67;;
20122;SDS011;10222;50.848;4.336;2024-01-16T03:34:39;6.27;;;2.87;;
20122;SDS011;10222;50.848;4.336;2024-01-16T03:37:06;13.53;;;3.07;;
20122;SDS011;10222;50.848;4.336;2024-01-16T03:39:32;8.73;;;3.17;;
20122;SDS011;10222;50.848;4.336;2024-01-16T03:41:58;6.13;;;2.87;;
20122;SDS011;10222;50.848;4.336;2024-01-16T03:44:24;7.80;;;3.20;;
20122;SDS011;10222;50.848;4.336;2024-01-16T03:46:50;14.13;;;3.47;;
20122;SDS011;10222;50.848;4.336;2024-01-16T03:49:16;9.63;;;3.23;;
20122;SDS011;10222;50.848;4.336;2024-01-16T03:51:42;6.33;;;2.50;;
20122;SDS011;10222;50.848;4.336;2024-01-16T03:54:12;6.10;;;3.20;;
20122;SDS011;10222;50.848;4.336;2024-01-16T03:56:41;11.07;;;2.80;;
20122;SDS011;10222;50.848;4.336;2024-01-16T03:59:07;7.80;;;2.83;;
20122;SDS011;10222;50.848;4.336;2024-01-16T04:01:33;5.50;;;2.83;;
20122;SDS011;10222;50.848;4.336;2024-01-16T04:04:01;5.87;;;2.83;;
20122;SDS011;10222;50.848;4.336;2024-01-16T04:06:28;8.77;;;3.40;;
20122;SDS011;10222;50.848;4.336;2024-01-16T04:08:54;11.50;;;3.77;;
20122;SDS011;10222;50.848;4.336;2024-01-16T04:11:20;5.93;;;2.90;;
20122;SDS011;10222;50.848;4.336;2024-01-16T04:13:46;5.87;;;2.77;;
20122;SDS011;10222;50.848;4.336;2024-01-16T04:16:12;8.50;;;3.27;;
20122;SDS011;10222;50.848;4.336;2024-01-16T04:18:39;6.83;;;3.60;;
20122;SDS011;10222;50.848;4.336;2024-01-16T04:21:06;3.67;;;2.50;;
20122;SDS011;10222;50.848;4.336;2024-01-16T04:23:32;8.23;;;3.13;;
20122;SDS011;10222;50.848;4.336;2024-01-16T04:25:58;8.57;;;3.37;;
20122;SDS011;10222;50.848;4.336;2024-01-16T04:28:24;8.83;;;3.33;;
20122;SDS011;10222;50.848;4.336;2024-01-16T04:30:51;10.17;;;3.40;;
20122;SDS011;10222;50.848;4.336;2024-01-16T04:33:17;5.63;;;3.13;;
20122;SDS011;10222;50.848;4.336;2024-01-16T04:35:43;12.43;;;3.30;;
20122;SDS011;10222;50.848;4.336;2024-01-16T04:38:09;6.50;;;3.30;;
20122;SDS011;10222;50.848;4.336;2024-01-16T04:40:35;12.00;;;3.70;;
20122;SDS011;10222;50.848;4.336;2024-01-16T04:43:01;6.33;;;3.23;;
20122;SDS011;10222;50.848;4.336;2024-01-16T04:45:27;7.83;;;3.70;;
20122;SDS011;10222;50.848;4.336;2024-01-16T04:47:53;9.90;;;3.20;;
20122;SDS011;10222;50.848;4.336;2024-01-16T04:50:19;9.63;;;4.17;;
20122;SDS011;10222;50.848;4.336;2024-01-16T04:52:45;5.40;;;2.87;;
20122;SDS011;10222;50.848;4.336;2024-01-16T04:55:11;9.13;;;3.33;;
20122;SDS011;10222;50.848;4.336;2024-01-16T04:57:37;9.03;;;3.23;;
20122;SDS011;10222;50.848;4.336;2024-01-16T05:00:03;6.40;;;3.13;;
20122;SDS011;10222;50.848;4.336;2024-01-16T05:02:33;7.07;;;3.17;;
20122;SDS011;10222;50.848;4.336;2024-01-16T05:04:59;6.57;;;3.10;;
20122;SDS011;10222;50.848;4.336;2024-01-16T05:07:25;5.63;;;2.77;;
20122;SDS011;10222;50.848;4.336;2024-01-16T05:09:51;7.97;;;3.37;;
20122;SDS011;10222;50.848;4.336;2024-01-16T05:12:18;6.60;;;3.17;;
20122;SDS011;10222;50.848;4.336;2024-01-16T05:14:45;7.03;;;2.93;;
20122;SDS011;10222;50.848;4.336;2024-01-16T05:17:11;11.93;;;2.97;;
20122;SDS011;10222;50.848;4.336;2024-01-16T05:19:37;10.00;;;3.13;;
20122;SDS011;10222;50.848;4.336;2024-01-16T05:22:03;5.80;;;3.17;;
20122;SDS011;10222;50.848;4.336;2024-01-16T05:24:29;6.83;;;2.40;;
20122;SDS011;10222;50.848;4.336;2024-01-16T05:26:55;5.30;;;3.30;;
20122;SDS011;10222;50.848;4.336;2024-01-16T05:29:21;7.57;;;3.13;;
20122;SDS011;10222;50.848;4.336;2024-01-16T05:31:47;6.97;;;2.97;;
20122;SDS011;10222;50.848;4.336;2024-01-16T05:34:13;8.33;;;2.53;;
20122;SDS011;10222;50.848;4.336;2024-01-16T05:36:40;11.00;;;3.37;;
20122;SDS011;10222;50.848;4.336;2024-01-16T05:39:06;8.63;;;3.60;;
20122;SDS011;10222;50.848;4.336;2024-01-16T05:41:33;14.20;;;3.47;;
20122;SDS011;10222;50.848;4.336;2024-01-16T05:43:59;8.30;;;3.50;;
20122;SDS011;10222;50.848;4.336;2024-01-16T05:46:28;8.33;;;3.30;;
20122;SDS011;10222;50.848;4.336;2024-01-16T05:48:54;7.57;;;3.27;;
20122;SDS011;10222;50.848;4.336;2024-01-16T05:51:20;11.43;;;4.03;;
20122;SDS011;10222;50.848;4.336;2024-01-16T05:53:46;6.53;;;3.40;;
20122;SDS011;10222;50.848;4.336;2024-01-16T05:56:13;9.00;;;3.40;;
20122;SDS011;10222;50.848;4.336;2024-01-16T05:58:39;8.53;;;3.60;;
20122;SDS011;10222;50.848;4.336;2024-01-16T06:01:05;5.33;;;3.00;;
20122;SDS011;10222;50.848;4.336;2024-01-16T06:03:31;9.33;;;3.30;;
20122;SDS011;10222;50.848;4.336;2024-01-16T06:05:57;14.63;;;3.17;;
20122;SDS011;10222;50.848;4.336;2024-01-16T06:08:24;9.70;;;3.10;;
20122;SDS011;10222;50.848;4.336;2024-01-16T06:10:50;9.77;;;3.53;;
20122;SDS011;10222;50.848;4.336;2024-01-16T06:13:17;9.20;;;3.70;;
20122;SDS011;10222;50.848;4.336;2024-01-16T06:15:43;7.20;;;3.07;;
20122;SDS011;10222;50.848;4.336;2024-01-16T06:18:09;7.60;;;2.90;;
20122;SDS011;10222;50.848;4.336;2024-01-16T06:20:35;8.20;;;3.03;;
20122;SDS011;10222;50.848;4.336;2024-01-16T06:23:01;13.77;;;3.70;;
20122;SDS011;10222;50.848;4.336;2024-01-16T06:25:27;6.10;;;3.13;;
20122;SDS011;10222;50.848;4.336;2024-01-16T06:27:53;10.97;;;3.93;;
20122;SDS011;10222;50.848;4.336;2024-01-16T06:30:20;7.27;;;3.20;;
20122;SDS011;10222;50.848;4.336;2024-01-16T06:32:46;10.13;;;3.13;;
20122;SDS011;10222;50.848;4.336;2024-01-16T06:35:12;9.37;;;3.30;;
20122;SDS011;10222;50.848;4.336;2024-01-16T06:37:38;11.13;;;3.23;;
20122;SDS011;10222;50.848;4.336;2024-01-16T06:40:05;9.13;;;3.47;;
20122;SDS011;10222;50.848;4.336;2024-01-16T06:42:31;11.77;;;3.43;;
20122;SDS011;10222;50.848;4.336;2024-01-16T06:44:58;8.33;;;3.53;;
20122;SDS011;10222;50.848;4.336;2024-01-16T06:47:24;9.67;;;3.97;;
20122;SDS011;10222;50.848;4.336;2024-01-16T06:49:50;7.10;;;3.10;;
20122;SDS011;10222;50.848;4.336;2024-01-16T06:52:16;8.60;;;3.27;;
20122;SDS011;10222;50.848;4.336;2024-01-16T06:54:42;8.07;;;3.07;;
20122;SDS011;10222;50.848;4.336;2024-01-16T06:57:08;10.43;;;3.53;;
20122;SDS011;10222;50.848;4.336;2024-01-16T06:59:35;5.27;;;3.20;;
20122;SDS011;10222;50.848;4.336;2024-01-16T07:02:01;10.77;;;2.73;;
20122;SDS011;10222;50.848;4.336;2024-01-16T07:04:27;10.43;;;3.40;;
20122;SDS011;10222;50.848;4.336;2024-01-16T07:06:53;13.50;;;3.27;;
20122;SDS011;10222;50.848;4.336;2024-01-16T07:09:19;8.20;;;3.60;;
20122;SDS011;10222;50.848;4.336;2024-01-16T07:11:46;12.10;;;3.60;;
20122;SDS011;10222;50.848;4.336;2024-01-16T07:14:12;13.83;;;3.90;;
20122;SDS011;10222;50.848;4.336;2024-01-16T07:16:38;8.07;;;2.77;;
20122;SDS011;10222;50.848;4.336;2024-01-16T07:19:05;8.33;;;3.20;;
20122;SDS011;10222;50.848;4.336;2024-01-16T07:21:31;6.67;;;3.03;;
20122;SDS011;10222;50.848;4.336;2024-01-16T07:23:57;12.60;;;4.33;;
20122;SDS011;10222;50.848;4.336;2024-01-16T07:26:24;8.13;;;3.13;;
20122;SDS011;10222;50.848;4.336;2024-01-16T07:28:50;8.93;;;3.90;;
20122;SDS011;10222;50.848;4.336;2024-01-16T07:31:16;6.93;;;3.30;;
20122;SDS011;10222;50.848;4.336;2024-01-16T07:33:42;11.50;;;3.47;;
20122;SDS011;10222;50.848;4.336;2024-01-16T07:36:09;10.13;;;3.87;;
20122;SDS011;10222;50.848;4.336;2024-01-16T07:38:35;6.97;;;3.40;;
20122;SDS011;10222;50.848;4.336;2024-01-16T07:41:02;10.37;;;3.27;;
20122;SDS011;10222;50.848;4.336;2024-01-16T07:43:28;11.50;;;3.90;;
20122;SDS011;10222;50.848;4.336;2024-01-16T07:45:57;9.97;;;4.20;;
20122;SDS011;10222;50.848;4.336;2024-01-16T07:48:23;10.07;;;3.50;;
20122;SDS011;10222;50.848;4.336;2024-01-16T07:50:49;6.20;;;3.20;;
20122;SDS011;10222;50.848;4.336;2024-01-16T07:53:15;11.93;;;3.57;;
20122;SDS011;10222;50.848;4.336;2024-01-16T07:55:42;10.93;;;3.70;;
20122;SDS011;10222;50.848;4.336;2024-01-16T07:58:11;11.00;;;3.70;;
20122;SDS011;10222;50.848;4.336;2024-01-16T08:00:38;7.50;;;3.43;;
20122;SDS011;10222;50.848;4.336;2024-01-16T08:03:07;7.93;;;3.37;;
20122;SDS011;10222;50.848;4.336;2024-01-16T08:05:33;7.30;;;3.60;;
20122;SDS011;10222;50.848;4.336;2024-01-16T08:07:59;9.97;;;4.20;;
20122;SDS011;10222;50.848;4.336;2024-01-16T08:10:25;8.73;;;3.20;;
20122;SDS011;10222;50.848;4.336;2024-01-16T08:12:51;7.57;;;3.00;;
20122;SDS011;10222;50.848;4.336;2024-01-16T08:15:17;5.43;;;3.43;;
20122;SDS011;10222;50.848;4.336;2024-01-16T08:17:43;13.10;;;3.57;;
20122;SDS011;10222;50.848;4.336;2024-01-16T08:20:09;6.57;;;3.63;;
20122;SDS011;10222;50.848;4.336;2024-01-16T08:22:36;5.40;;;3.10;;
20122;SDS011;10222;50.848;4.336;2024-01-16T08:25:02;6.90;;;3.53;;
20122;SDS011;10222;50.848;4.336;2024-01-16T08:27:30;7.30;;;3.30;;
20122;SDS011;10222;50.848;4.336;2024-01-16T08:29:56;9.00;;;3.77;;
20122;SDS011;10222;50.848;4.336;2024-01-16T08:32:22;8.73;;;3.70;;
20122;SDS011;10222;50.848;4.336;2024-01-16T08:34:48;5.60;;;3.40;;
20122;SDS011;10222;50.848;4.336;2024-01-16T08:37:14;8.67;;;3.10;;
20122;SDS011;10222;50.848;4.336;2024-01-16T08:39:40;8.57;;;3.00;;
20122;SDS011;10222;50.848;4.336;2024-01-16T08:42:06;7.20;;;3.43;;
20122;SDS011;10222;50.848;4.336;2024-01-16T08:44:36;8.77;;;3.77;;
20122;SDS011;10222;50.848;4.336;2024-01-16T08:47:02;9.17;;;3.17;;
20122;SDS011;10222;50.848;4.336;2024-01-16T08:49:31;5.33;;;3.03;;
20122;SDS011;10222;50.848;4.336;2024-01-16T08:51:57;12.23;;;2.93;;
20122;SDS011;10222;50.848;4.336;2024-01-16T08:54:23;4.07;;;2.77;;
20122;SDS011;10222;50.848;4.336;2024-01-16T08:56:50;8.20;;;2.83;;
20122;SDS011;10222;50.848;4.336;2024-01-16T08:59:17;6.93;;;3.30;;
20122;SDS011;10222;50.848;4.336;2024-01-16T09:01:43;7.20;;;3.43;;
20122;SDS011;10222;50.848;4.336;2024-01-16T09:04:09;4.17;;;2.33;;
20122;SDS011;10222;50.848;4.336;2024-01-16T09:06:35;5.40;;;3.00;;
20122;SDS011;10222;50.848;4.336;2024-01-16T09:09:01;6.30;;;2.87;;
20122;SDS011;10222;50.848;4.336;2024-01-16T09:11:29;10.17;;;3.30;;
20122;SDS011;10222;50.848;4.336;2024-01-16T09:13:55;4.00;;;2.63;;
20122;SDS011;10222;50.848;4.336;2024-01-16T09:16:21;6.10;;;3.00;;
20122;SDS011;10222;50.848;4.336;2024-01-16T09:18:47;11.37;;;2.90;;
20122;SDS011;10222;50.848;4.336;2024-01-16T09:21:14;7.23;;;2.80;;
20122;SDS011;10222;50.848;4.336;2024-01-16T09:23:40;6.37;;;3.07;;
20122;SDS011;10222;50.848;4.336;2024-01-16T09:26:06;7.00;;;2.57;;
20122;SDS011;10222;50.848;4.336;2024-01-16T09:28:32;10.77;;;3.30;;
20122;SDS011;10222;50.848;4.336;2024-01-16T09:30:58;6.27;;;2.53;;
20122;SDS011;10222;50.848;4.336;2024-01-16T09:33:24;3.47;;;2.30;;
20122;SDS011;10222;50.848;4.336;2024-01-16T09:35:50;4.73;;;2.80;;
20122;SDS011;10222;50.848;4.336;2024-01-16T09:38:16;5.70;;;2.90;;
20122;SDS011;10222;50.848;4.336;2024-01-16T09:40:43;7.10;;;2.77;;
20122;SDS011;10222;50.848;4.336;2024-01-16T09:43:09;5.10;;;2.47;;
20122;SDS011;10222;50.848;4.336;2024-01-16T09:45:37;8.37;;;2.67;;
20122;SDS011;10222;50.848;4.336;2024-01-16T09:48:04;7.13;;;3.10;;
20122;SDS011;10222;50.848;4.336;2024-01-16T09:50:30;5.80;;;2.73;;
20122;SDS011;10222;50.848;4.336;2024-01-16T09:52:56;5.17;;;2.37;;
20122;SDS011;10222;50.848;4.336;2024-01-16T09:55:23;8.33;;;2.57;;
20122;SDS011;10222;50.848;4.336;2024-01-16T09:57:51;4.97;;;2.90;;
20122;SDS011;10222;50.848;4.336;2024-01-16T10:00:17;2.67;;;2.30;;
20122;SDS011;10222;50.848;4.336;2024-01-16T10:02:44;9.00;;;3.20;;
20122;SDS011;10222;50.848;4.336;2024-01-16T10:05:11;4.53;;;2.30;;
20122;SDS011;10222;50.848;4.336;2024-01-16T10:07:37;4.87;;;2.67;;
20122;SDS011;10222;50.848;4.336;2024-01-16T10:10:04;6.60;;;2.43;;
20122;SDS011;10222;50.848;4.336;2024-01-16T10:12:30;5.80;;;2.73;;
20122;SDS011;10222;50.848;4.336;2024-01-16T10:14:57;5.63;;;2.63;;
20122;SDS011;10222;50.848;4.336;2024-01-16T10:17:23;7.10;;;2.60;;
20122;SDS011;10222;50.848;4.336;2024-01-16T10:20:00;5.73;;;2.57;;
20122;SDS011;10222;50.848;4.336;2024-01-16T10:22:29;6.40;;;3.00;;
20122;SDS011;10222;50.848;4.336;2024-01-16T10:25:11;4.20;;;2.47;;
20122;SDS011;10222;50.848;4.336;2024-01-16T10:27:41;10.30;;;3.20;;
20122;SDS011;10222;50.848;4.336;2024-01-16T10:30:07;5.87;;;3.20;;
20122;SDS011;10222;50.848;4.336;2024-01-16T10:32:34;5.23;;;2.50;;
20122;SDS011;10222;50.848;4.336;2024-01-16T10:35:04;6.33;;;2.73;;
20122;SDS011;10222;50.848;4.336;2024-01-16T10:37:40;5.70;;;2.27;;
20122;SDS011;10222;50.848;4.336;2024-01-16T10:40:07;6.67;;;2.97;;
20122;SDS011;10222;50.848;4.336;2024-01-16T10:42:33;4.87;;;2.57;;
20122;SDS011;10222;50.848;4.336;2024-01-16T10:44:59;4.73;;;2.57;;
20122;SDS011;10222;50.848;4.336;2024-01-16T10:47:25;5.77;;;2.30;;
20122;SDS011;10222;50.848;4.336;2024-01-16T10:49:51;4.07;;;2.07;;
20122;SDS011;10222;50.848;4.336;2024-01-16T10:52:17;3.73;;;2.10;;
20122;SDS011;10222;50.848;4.336;2024-01-16T10:54:44;6.43;;;2.53;;
20122;SDS011;10222;50.848;4.336;2024-01-16T10:57:14;4.37;;;2.37;;
20122;SDS011;10222;50.848;4.336;2024-01-16T10:59:48;8.43;;;3.03;;
20122;SDS011;10222;50.848;4.336;2024-01-16T11:02:16;5.97;;;2.83;;
20122;SDS011;10222;50.848;4.336;2024-01-16T11:04:44;13.80;;;2.50;;
20122;SDS011;10222;50.848;4.336;2024-01-16T11:07:12;4.63;;;2.17;;
20122;SDS011;10222;50.848;4.336;2024-01-16T11:09:39;3.90;;;1.83;;
20122;SDS011;10222;50.848;4.336;2024-01-16T11:12:06;2.90;;;2.07;;
20122;SDS011;10222;50.848;4.336;2024-01-16T11:14:33;6.90;;;2.93;;
20122;SDS011;10222;50.848;4.336;2024-01-16T11:16:59;6.97;;;2.67;;
20122;SDS011;10222;50.848;4.336;2024-01-16T11:19:26;6.70;;;1.97;;
20122;SDS011;10222;50.848;4.336;2024-01-16T11:21:53;7.87;;;2.47;;
20122;SDS011;10222;50.848;4.336;2024-01-16T11:24:19;6.47;;;2.70;;
20122;SDS011;10222;50.848;4.336;2024-01-16T11:26:45;9.20;;;2.60;;
20122;SDS011;10222;50.848;4.336;2024-01-16T11:31:53;7.23;;;2.37;;
20122;SDS011;10222;50.848;4.336;2024-01-16T11:37:05;6.37;;;3.10;;
20122;SDS011;10222;50.848;4.336;2024-01-16T11:39:33;4.47;;;2.23;;
20122;SDS011;10222;50.848;4.336;2024-01-16T11:41:59;3.63;;;2.10;;
20122;SDS011;10222;50.848;4.336;2024-01-16T11:44:46;4.93;;;2.23;;
20122;SDS011;10222;50.848;4.336;2024-01-16T11:47:21;8.73;;;2.83;;
20122;SDS011;10222;50.848;4.336;2024-01-16T11:49:48;6.87;;;2.87;;
20122;SDS011;10222;50.848;4.336;2024-01-16T11:52:14;4.30;;;2.90;;
20122;SDS011;10222;50.848;4.336;2024-01-16T11:54:41;8.37;;;2.50;;
20122;SDS011;10222;50.848;4.336;2024-01-16T12:03:10;9.97;;;2.50;;
20122;SDS011;10222;50.848;4.336;2024-01-16T12:05:11;4.73;;;2.50;;
20122;SDS011;10222;50.848;4.336;2024-01-16T12:07:47;5.23;;;2.93;;
20122;SDS011;10222;50.848;4.336;2024-01-16T12:10:17;4.60;;;1.90;;
20122;SDS011;10222;50.848;4.336;2024-01-16T12:12:44;5.13;;;2.30;;
20122;SDS011;10222;50.848;4.336;2024-01-16T12:15:28;5.77;;;2.23;;
20122;SDS011;10222;50.848;4.336;2024-01-16T12:20:21;10.07;;;2.17;;
20122;SDS011;10222;50.848;4.336;2024-01-16T12:25:20;7.93;;;2.33;;
20122;SDS011;10222;50.848;4.336;2024-01-16T12:27:58;7.53;;;2.33;;
20122;SDS011;10222;50.848;4.336;2024-01-16T12:30:25;6.40;;;3.03;;
20122;SDS011;10222;50.848;4.336;2024-01-16T12:33:02;7.07;;;2.37;;
20122;SDS011;10222;50.848;4.336;2024-01-16T12:35:28;9.30;;;3.70;;
20122;SDS011;10222;50.848;4.336;2024-01-16T12:37:58;8.60;;;2.40;;
20122;SDS011;10222;50.848;4.336;2024-01-16T12:40:24;6.07;;;2.03;;
20122;SDS011;10222;50.848;4.336;2024-01-16T12:42:50;4.90;;;1.90;;
20122;SDS011;10222;50.848;4.336;2024-01-16T12:45:18;3.53;;;1.97;;
20122;SDS011;10222;50.848;4.336;2024-01-16T12:47:44;3.97;;;2.10;;
20122;SDS011;10222;50.848;4.336;2024-01-16T12:50:18;7.67;;;2.87;;
20122;SDS011;10222;50.848;4.336;2024-01-16T12:52:45;5.13;;;2.07;;
20122;SDS011;10222;50.848;4.336;2024-01-16T12:55:11;6.00;;;2.00;;
20122;SDS011;10222;50.848;4.336;2024-01-16T12:57:39;6.20;;;2.13;;
20122;SDS011;10222;50.848;4.336;2024-01-16T13:00:21;5.63;;;2.17;;
20122;SDS011;10222;50.848;4.336;2024-01-16T13:02:51;7.00;;;2.10;;
20122;SDS011;10222;50.848;4.336;2024-01-16T13:05:18;7.93;;;2.53;;
20122;SDS011;10222;50.848;4.336;2024-01-16T13:07:44;9.70;;;2.50;;
20122;SDS011;10222;50.848;4.336;2024-01-16T13:10:12;4.80;;;2.63;;
20122;SDS011;10222;50.848;4.336;2024-01-16T13:12:41;10.67;;;3.37;;
20122;SDS011;10222;50.848;4.336;2024-01-16T13:15:07;7.80;;;2.53;;
20122;SDS011;10222;50.848;4.336;2024-01-16T13:17:34;8.20;;;2.40;;
20122;SDS011;10222;50.848;4.336;2024-01-16T13:20:01;6.43;;;2.60;;
20122;SDS011;10222;50.848;4.336;2024-01-16T13:22:28;5.63;;;2.70;;
20122;SDS011;10222;50.848;4.336;2024-01-16T13:24:54;4.47;;;2.53;;
20122;SDS011;10222;50.848;4.336;2024-01-16T13:27:22;5.53;;;2.50;;
20122;SDS011;10222;50.848;4.336;2024-01-16T13:29:48;4.20;;;2.17;;
20122;SDS011;10222;50.848;4.336;2024-01-16T13:32:14;4.47;;;2.17;;
20122;SDS011;10222;50.848;4.336;2024-01-16T13:34:40;5.90;;;2.07;;
20122;SDS011;10222;50.848;4.336;2024-01-16T13:37:11;3.33;;;2.40;;
20122;SDS011;10222;50.848;4.336;2024-01-16T13:39:41;4.97;;;2.43;;
20122;SDS011;10222;50.848;4.336;2024-01-16T13:42:07;7.30;;;2.57;;
20122;SDS011;10222;50.848;4.336;2024-01-16T13:44:33;7.83;;;3.00;;
20122;SDS011;10222;50.848;4.336;2024-01-16T13:46:59;3.90;;;1.80;;
20122;SDS011;10222;50.848;4.336;2024-01-16T13:49:25;5.80;;;1.70;;
20122;SDS011;10222;50.848;4.336;2024-01-16T13:51:51;6.83;;;1.97;;
20122;SDS011;10222;50.848;4.336;2024-01-16T13:54:17;5.07;;;1.70;;
20122;SDS011;10222;50.848;4.336;2024-01-16T13:56:43;4.43;;;1.93;;
20122;SDS011;10222;50.848;4.336;2024-01-16T13:59:11;2.73;;;1.87;;
20122;SDS011;10222;50.848;4.336;2024-01-16T14:01:37;7.17;;;2.27;;
20122;SDS011;10222;50.848;4.336;2024-01-16T14:04:03;8.40;;;2.57;;
20122;SDS011;10222;50.848;4.336;2024-01-16T14:06:30;3.20;;;1.80;;
20122;SDS011;10222;50.848;4.336;2024-01-16T14:08:56;5.73;;;2.03;;
20122;SDS011;10222;50.848;4.336;2024-01-16T14:11:22;4.13;;;2.33;;
20122;SDS011;10222;50.848;4.336;2024-01-16T14:13:48;4.17;;;1.67;;
20122;SDS011;10222;50.848;4.336;2024-01-16T14:16:14;4.90;;;1.67;;
20122;SDS011;10222;50.848;4.336;2024-01-16T14:18:40;3.07;;;1.93;;
20122;SDS011;10222;50.848;4.336;2024-01-16T14:21:06;4.13;;;2.27;;
20122;SDS011;10222;50.848;4.336;2024-01-16T14:23:32;5.20;;;1.83;;
20122;SDS011;10222;50.848;4.336;2024-01-16T14:25:58;5.67;;;2.07;;
20122;SDS011;10222;50.848;4.336;2024-01-16T14:28:24;6.27;;;2.10;;
20122;SDS011;10222;50.848;4.336;2024-01-16T14:30:52;5.80;;;2.03;;
20122;SDS011;10222;50.848;4.336;2024-01-16T14:33:18;4.53;;;2.10;;
20122;SDS011;10222;50.848;4.336;2024-01-16T14:35:44;4.37;;;1.80;;
20122;SDS011;10222;50.848;4.336;2024-01-16T14:38:10;4.60;;;2.00;;
20122;SDS011;10222;50.848;4.336;2024-01-16T14:40:36;4.27;;;1.90;;
20122;SDS011;10222;50.848;4.336;2024-01-16T14:43:02;4.60;;;2.27;;
20122;SDS011;10222;50.848;4.336;2024-01-16T14:45:29;3.70;;;1.87;;
20122;SDS011;10222;50.848;4.336;2024-01-16T14:47:56;4.47;;;2.30;;
20122;SDS011;10222;50.848;4.336;2024-01-16T14:50:22;6.03;;;2.47;;
20122;SDS011;10222;50.848;4.336;2024-01-16T14:52:49;3.43;;;1.90;;
20122;SDS011;10222;50.848;4.336;2024-01-16T14:55:15;5.63;;;1.90;;
20122;SDS011;10222;50.848;4.336;2024-01-16T14:57:42;4.70;;;2.10;;